East Buffalo, Pennsylvania
Current Conditions -  °F | °C
As of 3:25 PM on Wednesday 26 Nov 2014 (Local Time) from KSEG Reporting Station
Light Snow Light Snow  
Wind Chill: 26°   Ceiling: 1500
Heat Index: 33°   Visibility: 1.2mi
Dew Point: 31°   Wind: 8mph
Humidity: 92%   Direction: 340°NNW
Pressure: 29.98"   Gusts: NA
Location:  40.9885°N, 76.9787°W
Report Text: KSEG 262025Z AUTO 34007KT 1 1/4SM -SN BR SCT006 SCT011 OVC015 01/M01 A2998 RMK AO2 P0002 T00061006
Loading
Personal Weather Stations






























Interactive Weather Map New forecast layout! Learn more

10-Day Weather Forecast

Advertisements
Track Severe Weather on mobile